Time,TemperatureF,DewpointF,PressureIn,WindDirection,WindDirectionDegrees,WindSpeedMPH,WindSpeedGustMPH,Humidity,HourlyPrecipIn,Conditions,Clouds,dailyrainin,SoftwareType,DateUTC
2013-04-26 00:00:00,37.8,33.7,29.32,NNW,337,0.0,0.0,85,0.00,,,0.00,WUHU216WMR100,2013-04-26 04:00:00,
2013-04-26 00:01:00,37.8,33.7,29.32,NNW,337,0.0,0.0,85,0.00,,,0.00,WUHU216WMR100,2013-04-26 04:01:00,
2013-04-26 00:06:00,37.6,33.8,29.32,NNW,337,0.0,0.0,86,0.00,,,0.00,WUHU216WMR100,2013-04-26 04:06:00,
2013-04-26 00:12:00,37.4,33.3,29.32,NNW,337,0.0,0.0,85,0.00,,,0.00,WUHU216WMR100,2013-04-26 04:12:00,
2013-04-26 00:17:00,37.0,33.2,29.32,NNW,337,0.0,0.0,86,0.00,,,0.00,WUHU216WMR100,2013-04-26 04:17:00,
2013-04-26 00:22:00,36.9,33.1,29.32,NNW,337,0.0,0.0,86,0.00,,,0.00,WUHU216WMR100,2013-04-26 04:22:00,
2013-04-26 00:27:00,36.9,33.1,29.32,NNW,337,0.0,0.0,86,0.00,,,0.00,WUHU216WMR100,2013-04-26 04:27:00,
2013-04-26 00:32:00,37.0,33.7,29.32,NNW,337,0.0,0.0,88,0.00,,,0.00,WUHU216WMR100,2013-04-26 04:32:00,
2013-04-26 00:37:00,36.9,33.4,29.32,NNW,337,0.0,0.0,87,0.00,,,0.00,WUHU216WMR100,2013-04-26 04:37:00,
2013-04-26 00:42:00,36.7,33.2,29.32,NNW,337,0.0,0.0,87,0.00,,,0.00,WUHU216WMR100,2013-04-26 04:42:00,
2013-04-26 00:47:00,36.7,33.4,29.32,NNW,337,0.0,0.0,88,0.00,,,0.00,WUHU216WMR100,2013-04-26 04:47:00,
2013-04-26 00:52:00,36.7,33.4,29.32,NNW,337,0.0,0.0,88,0.00,,,0.00,WUHU216WMR100,2013-04-26 04:52:00,
2013-04-26 00:57:00,36.1,32.6,29.32,North,0,0.0,0.0,87,0.00,,,0.00,WUHU216WMR100,2013-04-26 04:57:00,
2013-04-26 01:02:00,36.1,32.9,29.35,North,0,0.0,0.0,88,0.00,,,0.00,WUHU216WMR100,2013-04-26 05:02:00,
2013-04-26 01:07:00,36.3,33.0,29.35,North,0,0.0,0.0,88,0.00,,,0.00,WUHU216WMR100,2013-04-26 05:07:00,
2013-04-26 01:12:00,36.1,32.9,29.35,North,0,0.0,0.0,88,0.00,,,0.00,WUHU216WMR100,2013-04-26 05:12:00,
2013-04-26 01:17:00,35.8,32.6,29.32,North,0,0.0,0.0,88,0.00,,,0.00,WUHU216WMR100,2013-04-26 05:17:00,
2013-04-26 01:22:00,35.8,32.6,29.32,North,0,0.0,0.0,88,0.00,,,0.00,WUHU216WMR100,2013-04-26 05:22:00,
2013-04-26 01:27:00,35.4,32.2,29.32,North,0,0.0,0.0,88,0.00,,,0.00,WUHU216WMR100,2013-04-26 05:27:00,
2013-04-26 01:32:00,35.4,32.4,29.32,North,0,0.0,0.0,89,0.00,,,0.00,WUHU216WMR100,2013-04-26 05:32:00,
2013-04-26 01:37:00,35.4,32.4,29.32,North,0,0.0,0.0,89,0.00,,,0.00,WUHU216WMR100,2013-04-26 05:37:00,
2013-04-26 01:42:00,35.4,32.4,29.32,North,0,0.0,0.0,89,0.00,,,0.00,WUHU216WMR100,2013-04-26 05:42:00,
2013-04-26 01:47:00,35.1,32.1,29.32,North,0,0.0,0.0,89,0.00,,,0.00,WUHU216WMR100,2013-04-26 05:47:00,
2013-04-26 01:52:00,35.1,32.1,29.32,North,0,0.0,0.0,89,0.00,,,0.00,WUHU216WMR100,2013-04-26 05:52:00,
2013-04-26 01:57:00,35.1,32.1,29.32,North,0,0.0,0.0,89,0.00,,,0.00,WUHU216WMR100,2013-04-26 05:57:00,
2013-04-26 02:02:00,35.1,32.1,29.35,North,0,0.0,0.0,89,0.00,,,0.00,WUHU216WMR100,2013-04-26 06:02:00,
2013-04-26 02:07:00,35.1,32.1,29.35,North,0,0.0,0.0,89,0.00,,,0.00,WUHU216WMR100,2013-04-26 06:07:00,
2013-04-26 02:12:00,35.2,32.2,29.35,North,0,0.0,0.0,89,0.00,,,0.00,WUHU216WMR100,2013-04-26 06:12:00,
2013-04-26 02:17:00,35.1,32.1,29.35,North,0,0.0,0.0,89,0.00,,,0.00,WUHU216WMR100,2013-04-26 06:17:00,
2013-04-26 02:22:00,35.1,32.1,29.35,North,0,0.0,0.0,89,0.00,,,0.00,WUHU216WMR100,2013-04-26 06:22:00,
2013-04-26 02:27:00,35.1,32.1,29.35,North,0,0.0,0.0,89,0.00,,,0.00,WUHU216WMR100,2013-04-26 06:27:00,
2013-04-26 02:32:00,34.9,31.9,29.35,North,0,0.0,0.0,89,0.00,,,0.00,WUHU216WMR100,2013-04-26 06:32:00,
2013-04-26 02:37:00,35.1,32.4,29.35,North,0,0.0,0.0,90,0.00,,,0.00,WUHU216WMR100,2013-04-26 06:37:00,
2013-04-26 02:42:00,34.9,32.2,29.35,North,0,0.0,0.0,90,0.00,,,0.00,WUHU216WMR100,2013-04-26 06:42:00,
2013-04-26 02:47:00,34.9,32.2,29.35,North,0,0.0,0.0,90,0.00,,,0.00,WUHU216WMR100,2013-04-26 06:47:00,
2013-04-26 02:52:00,35.1,32.7,29.35,North,0,0.0,0.0,91,0.00,,,0.00,WUHU216WMR100,2013-04-26 06:52:00,
2013-04-26 02:57:00,35.1,33.0,29.35,North,0,0.0,0.0,92,0.00,,,0.00,WUHU216WMR100,2013-04-26 06:57:00,
2013-04-26 03:02:00,35.2,33.1,29.35,North,0,0.0,0.0,92,0.00,,,0.00,WUHU216WMR100,2013-04-26 07:02:00,
2013-04-26 03:07:00,35.2,33.1,29.35,North,0,0.0,0.0,92,0.00,,,0.00,WUHU216WMR100,2013-04-26 07:07:00,
2013-04-26 03:12:00,35.2,33.1,29.35,North,0,0.0,0.0,92,0.00,,,0.00,WUHU216WMR100,2013-04-26 07:12:00,
2013-04-26 03:18:00,35.1,33.0,29.32,North,0,0.0,0.0,92,0.00,,,0.00,WUHU216WMR100,2013-04-26 07:18:00,
2013-04-26 03:23:00,35.1,32.7,29.32,North,0,0.0,0.0,91,0.00,,,0.00,WUHU216WMR100,2013-04-26 07:23:00,
2013-04-26 03:28:00,35.1,32.4,29.32,North,0,0.0,0.0,90,0.00,,,0.00,WUHU216WMR100,2013-04-26 07:28:00,
2013-04-26 03:33:00,35.1,32.4,29.35,North,0,0.0,0.0,90,0.00,,,0.00,WUHU216WMR100,2013-04-26 07:33:00,
2013-04-26 03:38:00,35.1,32.7,29.35,North,0,0.0,0.0,91,0.00,,,0.00,WUHU216WMR100,2013-04-26 07:38:00,
2013-04-26 03:43:00,34.9,32.5,29.35,North,0,0.0,0.0,91,0.00,,,0.00,WUHU216WMR100,2013-04-26 07:43:00,
2013-04-26 03:48:00,34.9,32.5,29.35,North,0,0.0,0.0,91,0.00,,,0.00,WUHU216WMR100,2013-04-26 07:48:00,
2013-04-26 03:53:00,34.9,32.5,29.35,North,0,0.0,0.0,91,0.00,,,0.00,WUHU216WMR100,2013-04-26 07:53:00,
2013-04-26 03:58:00,34.7,32.3,29.35,North,0,0.0,0.0,91,0.00,,,0.00,WUHU216WMR100,2013-04-26 07:58:00,
2013-04-26 04:03:00,34.7,32.6,29.35,North,0,0.0,0.0,92,0.00,,,0.00,WUHU216WMR100,2013-04-26 08:03:00,
2013-04-26 04:08:00,34.5,32.4,29.35,North,0,0.0,0.0,92,0.00,,,0.00,WUHU216WMR100,2013-04-26 08:08:00,
2013-04-26 04:13:00,34.5,32.4,29.35,North,0,0.0,0.0,92,0.00,,,0.00,WUHU216WMR100,2013-04-26 08:13:00,
2013-04-26 04:18:00,34.5,32.4,29.35,North,0,0.0,0.0,92,0.00,,,0.00,WUHU216WMR100,2013-04-26 08:18:00,
2013-04-26 04:23:00,34.5,32.4,29.35,North,0,0.0,0.0,92,0.00,,,0.00,WUHU216WMR100,2013-04-26 08:23:00,
2013-04-26 04:28:00,34.5,32.4,29.35,North,0,0.0,0.0,92,0.00,,,0.00,WUHU216WMR100,2013-04-26 08:28:00,
2013-04-26 04:33:00,34.5,32.4,29.35,NNE,22,0.0,0.0,92,0.00,,,0.00,WUHU216WMR100,2013-04-26 08:33:00,
2013-04-26 04:38:00,34.5,32.4,29.35,NNE,22,0.0,0.0,92,0.00,,,0.00,WUHU216WMR100,2013-04-26 08:38:00,
2013-04-26 04:43:00,34.7,32.6,29.35,NNE,22,0.0,0.0,92,0.00,,,0.00,WUHU216WMR100,2013-04-26 08:43:00,
2013-04-26 04:48:00,34.7,32.6,29.35,NNE,22,0.0,0.0,92,0.00,,,0.00,WUHU216WMR100,2013-04-26 08:48:00,
2013-04-26 04:53:00,34.7,32.6,29.35,NNE,22,0.0,0.0,92,0.00,,,0.00,WUHU216WMR100,2013-04-26 08:53:00,
2013-04-26 04:58:00,34.7,32.6,29.35,NNE,22,0.0,0.0,92,0.00,,,0.00,WUHU216WMR100,2013-04-26 08:58:00,
2013-04-26 05:03:00,34.7,32.6,29.35,NNE,22,0.0,0.0,92,0.00,,,0.00,WUHU216WMR100,2013-04-26 09:03:00,
2013-04-26 05:08:00,34.5,32.4,29.35,NNE,22,0.0,0.0,92,0.00,,,0.00,WUHU216WMR100,2013-04-26 09:08:00,
2013-04-26 05:13:00,34.3,32.2,29.35,NNE,22,0.0,0.0,92,0.00,,,0.00,WUHU216WMR100,2013-04-26 09:13:00,
2013-04-26 05:18:00,34.2,32.1,29.35,NNE,22,0.0,0.0,92,0.00,,,0.00,WUHU216WMR100,2013-04-26 09:18:00,
2013-04-26 05:23:00,34.2,32.1,29.35,NNE,22,0.0,0.0,92,0.00,,,0.00,WUHU216WMR100,2013-04-26 09:23:00,
2013-04-26 05:28:00,34.3,32.4,29.35,NNE,22,0.0,0.0,93,0.00,,,0.00,WUHU216WMR100,2013-04-26 09:28:00,
2013-04-26 05:33:00,34.5,32.6,29.38,NNE,22,0.0,0.0,93,0.00,,,0.00,WUHU216WMR100,2013-04-26 09:33:00,
2013-04-26 05:38:00,34.5,32.6,29.38,NNE,22,1.6,2.2,93,0.00,,,0.00,WUHU216WMR100,2013-04-26 09:38:00,
2013-04-26 05:43:00,34.3,32.4,29.38,NNE,22,1.6,2.2,93,0.00,,,0.00,WUHU216WMR100,2013-04-26 09:43:00,
2013-04-26 05:48:00,34.2,32.3,29.38,NNE,22,1.6,1.6,93,0.00,,,0.00,WUHU216WMR100,2013-04-26 09:48:00,
2013-04-26 05:53:00,34.0,32.1,29.38,NNE,22,1.6,1.6,93,0.00,,,0.00,WUHU216WMR100,2013-04-26 09:53:00,
2013-04-26 05:58:00,33.8,31.7,29.38,NNE,22,1.6,1.6,92,0.00,,,0.00,WUHU216WMR100,2013-04-26 09:58:00,
2013-04-26 06:03:00,33.6,31.7,29.38,NNE,22,0.0,1.6,93,0.00,,,0.00,WUHU216WMR100,2013-04-26 10:03:00,
2013-04-26 06:08:00,33.6,31.7,29.38,NNE,22,0.0,1.6,93,0.00,,,0.00,WUHU216WMR100,2013-04-26 10:08:00,
2013-04-26 06:14:00,33.6,32.0,29.38,NNE,22,0.0,0.0,94,0.00,,,0.00,WUHU216WMR100,2013-04-26 10:14:00,
2013-04-26 06:19:00,33.6,32.0,29.38,NNE,22,0.9,1.3,94,0.00,,,0.00,WUHU216WMR100,2013-04-26 10:19:00,
2013-04-26 06:24:00,33.4,31.8,29.38,NNE,22,0.9,1.3,94,0.00,,,0.00,WUHU216WMR100,2013-04-26 10:24:00,
2013-04-26 06:29:00,33.3,31.7,29.38,NNE,22,0.0,1.1,94,0.00,,,0.00,WUHU216WMR100,2013-04-26 10:29:00,
2013-04-26 06:34:00,33.3,31.7,29.41,NNE,22,0.1,2.2,94,0.00,,,0.00,WUHU216WMR100,2013-04-26 10:34:00,
2013-04-26 06:39:00,33.3,31.7,29.41,NNE,22,0.0,2.2,94,0.00,,,0.00,WUHU216WMR100,2013-04-26 10:39:00,
2013-04-26 06:44:00,33.3,31.7,29.41,NNE,22,0.0,0.0,94,0.00,,,0.00,WUHU216WMR100,2013-04-26 10:44:00,
2013-04-26 06:49:00,33.3,31.7,29.41,NNE,22,0.0,0.0,94,0.00,,,0.00,WUHU216WMR100,2013-04-26 10:49:00,
2013-04-26 06:56:00,33.3,31.7,29.41,NNE,22,0.0,0.0,94,0.00,,,0.00,WUHU216WMR100,2013-04-26 10:56:00,
2013-04-26 07:01:00,33.3,31.7,29.41,NNE,22,0.0,0.0,94,0.00,,,0.00,WUHU216WMR100,2013-04-26 11:01:00,
2013-04-26 07:06:00,33.3,32.0,29.41,NNE,22,0.0,0.0,95,0.00,,,0.00,WUHU216WMR100,2013-04-26 11:06:00,
2013-04-26 07:11:00,33.3,31.7,29.41,NNE,22,0.0,0.0,94,0.00,,,0.00,WUHU216WMR100,2013-04-26 11:11:00,
2013-04-26 07:16:00,33.3,31.7,29.41,NNE,22,0.0,0.0,94,0.00,,,0.00,WUHU216WMR100,2013-04-26 11:16:00,
2013-04-26 07:21:00,33.4,32.1,29.41,NNE,22,0.0,0.0,95,0.00,,,0.00,WUHU216WMR100,2013-04-26 11:21:00,
2013-04-26 07:27:00,33.6,32.3,29.41,NNE,22,0.0,0.0,95,0.00,,,0.00,WUHU216WMR100,2013-04-26 11:27:00,
2013-04-26 07:32:00,33.8,32.5,29.41,NNE,22,0.0,0.0,95,0.00,,,0.00,WUHU216WMR100,2013-04-26 11:32:00,
2013-04-26 07:37:00,34.0,32.7,29.41,NNE,22,0.0,0.0,95,0.00,,,0.00,WUHU216WMR100,2013-04-26 11:37:00,
2013-04-26 07:42:00,34.2,33.1,29.41,NNE,22,0.0,0.0,96,0.00,,,0.00,WUHU216WMR100,2013-04-26 11:42:00,
2013-04-26 07:47:00,34.3,33.0,29.41,NNE,22,0.0,0.0,95,0.00,,,0.00,WUHU216WMR100,2013-04-26 11:47:00,
2013-04-26 07:52:00,34.5,33.4,29.41,NNE,22,0.0,0.0,96,0.00,,,0.00,WUHU216WMR100,2013-04-26 11:52:00,
2013-04-26 07:58:00,34.7,33.4,29.41,NNE,22,0.0,0.0,95,0.00,,,0.00,WUHU216WMR100,2013-04-26 11:58:00,
2013-04-26 08:03:00,34.9,33.6,29.41,NNE,22,0.0,1.3,95,0.00,,,0.00,WUHU216WMR100,2013-04-26 12:03:00,
2013-04-26 08:08:00,35.4,34.3,29.41,NNE,22,0.0,1.3,96,0.00,,,0.00,WUHU216WMR100,2013-04-26 12:08:00,
2013-04-26 08:13:00,35.8,34.5,29.41,NNE,22,1.3,1.3,95,0.00,,,0.00,WUHU216WMR100,2013-04-26 12:13:00,
2013-04-26 08:18:00,36.1,34.8,29.44,NNE,22,0.0,1.6,95,0.00,,,0.00,WUHU216WMR100,2013-04-26 12:18:00,
2013-04-26 08:23:00,36.5,35.2,29.44,NNE,22,0.0,1.6,95,0.00,,,0.00,WUHU216WMR100,2013-04-26 12:23:00,
2013-04-26 08:28:00,36.9,35.6,29.44,NNE,22,0.0,0.0,95,0.00,,,0.00,WUHU216WMR100,2013-04-26 12:28:00,
2013-04-26 08:33:00,38.1,37.0,29.44,NNE,22,0.0,0.0,96,0.00,,,0.00,WUHU216WMR100,2013-04-26 12:33:00,
2013-04-26 08:38:00,39.0,37.9,29.44,NNE,22,0.0,0.0,96,0.00,,,0.00,WUHU216WMR100,2013-04-26 12:38:00,
2013-04-26 08:43:00,39.4,38.3,29.44,NNE,22,0.0,0.0,96,0.00,,,0.00,WUHU216WMR100,2013-04-26 12:43:00,
2013-04-26 08:48:00,39.7,38.3,29.44,NNE,22,0.0,0.0,95,0.00,,,0.00,WUHU216WMR100,2013-04-26 12:48:00,
2013-04-26 08:53:00,40.5,38.9,29.44,NNE,22,0.0,0.0,94,0.00,,,0.00,WUHU216WMR100,2013-04-26 12:53:00,
2013-04-26 08:58:00,42.4,40.8,29.44,NNE,22,0.0,0.0,94,0.00,,,0.00,WUHU216WMR100,2013-04-26 12:58:00,
2013-04-26 09:03:00,43.5,41.0,29.44,NNE,22,0.0,0.0,91,0.00,,,0.00,WUHU216WMR100,2013-04-26 13:03:00,
2013-04-26 09:08:00,44.8,42.0,29.44,NNE,22,0.0,0.0,90,0.00,,,0.00,WUHU216WMR100,2013-04-26 13:08:00,
2013-04-26 09:13:00,46.0,43.5,29.44,NNE,22,0.0,0.0,91,0.00,,,0.00,WUHU216WMR100,2013-04-26 13:13:00,
2013-04-26 09:18:00,46.6,43.5,29.44,NNE,22,0.0,0.0,89,0.00,,,0.00,WUHU216WMR100,2013-04-26 13:18:00,
2013-04-26 09:23:00,47.8,45.3,29.44,NNE,22,0.0,0.0,91,0.00,,,0.00,WUHU216WMR100,2013-04-26 13:23:00,
2013-04-26 09:28:00,48.6,44.6,29.44,South,180,0.0,0.0,86,0.00,,,0.00,WUHU216WMR100,2013-04-26 13:28:00,
2013-04-26 09:33:00,49.6,44.3,29.44,South,180,0.0,0.0,82,0.00,,,0.00,WUHU216WMR100,2013-04-26 13:33:00,
2013-04-26 09:38:00,50.4,43.5,29.44,South,180,0.0,0.0,77,0.00,,,0.00,WUHU216WMR100,2013-04-26 13:38:00,
2013-04-26 09:43:00,51.6,43.0,29.44,South,180,0.0,0.0,72,0.00,,,0.00,WUHU216WMR100,2013-04-26 13:43:00,
2013-04-26 09:48:00,52.5,40.4,29.44,South,180,0.0,0.0,63,0.00,,,0.00,WUHU216WMR100,2013-04-26 13:48:00,
2013-04-26 09:53:00,53.4,40.8,29.44,South,180,0.0,0.0,62,0.00,,,0.00,WUHU216WMR100,2013-04-26 13:53:00,
2013-04-26 09:58:00,53.8,36.6,29.44,South,180,0.0,0.0,52,0.00,,,0.00,WUHU216WMR100,2013-04-26 13:58:00,
2013-04-26 10:03:00,55.2,36.3,29.44,South,180,0.0,0.0,49,0.00,,,0.00,WUHU216WMR100,2013-04-26 14:03:00,
2013-04-26 10:08:00,54.9,34.4,29.44,South,180,0.0,0.0,46,0.00,,,0.00,WUHU216WMR100,2013-04-26 14:08:00,
2013-04-26 10:13:00,55.6,32.1,29.44,ESE,112,2.7,2.7,41,0.00,,,0.00,WUHU216WMR100,2013-04-26 14:13:00,
2013-04-26 10:18:00,56.5,33.5,29.44,ESE,112,2.7,2.7,42,0.00,,,0.00,WUHU216WMR100,2013-04-26 14:18:00,
2013-04-26 10:24:00,56.3,28.8,29.44,ESE,120,2.4,2.7,35,0.00,,,0.00,WUHU216WMR100,2013-04-26 14:24:00,
2013-04-26 10:29:00,57.0,30.1,29.44,East,90,2.2,2.7,36,0.00,,,0.00,WUHU216WMR100,2013-04-26 14:29:00,
2013-04-26 10:34:00,57.2,28.9,29.44,ESE,112,4.3,4.3,34,0.00,,,0.00,WUHU216WMR100,2013-04-26 14:34:00,
2013-04-26 10:39:00,58.5,30.7,29.44,SSW,202,0.5,4.3,35,0.00,,,0.00,WUHU216WMR100,2013-04-26 14:39:00,
2013-04-26 10:44:00,58.6,29.4,29.44,NNE,22,2.2,4.3,33,0.00,,,0.00,WUHU216WMR100,2013-04-26 14:44:00,
2013-04-26 10:49:00,58.8,27.2,29.44,SW,220,2.3,3.8,30,0.00,,,0.00,WUHU216WMR100,2013-04-26 14:49:00,
2013-04-26 10:54:00,60.3,27.7,29.44,West,270,1.3,3.8,29,0.00,,,0.00,WUHU216WMR100,2013-04-26 14:54:00,
2013-04-26 10:59:00,60.3,27.7,29.44,SSE,157,2.0,3.1,29,0.00,,,0.00,WUHU216WMR100,2013-04-26 14:59:00,
2013-04-26 11:04:00,59.5,24.4,29.44,ESE,110,2.9,5.4,26,0.00,,,0.00,WUHU216WMR100,2013-04-26 15:04:00,
2013-04-26 11:09:00,59.5,24.4,29.44,East,92,3.8,5.4,26,0.00,,,0.00,WUHU216WMR100,2013-04-26 15:09:00,
2013-04-26 11:14:00,59.7,25.5,29.44,SSE,157,1.3,5.6,27,0.00,,,0.00,WUHU216WMR100,2013-04-26 15:14:00,
2013-04-26 11:19:00,59.4,24.3,29.44,WNW,292,4.5,5.6,26,0.00,,,0.00,WUHU216WMR100,2013-04-26 15:19:00,
2013-04-26 11:24:00,60.6,25.3,29.44,SSW,192,2.8,4.5,26,0.00,,,0.00,WUHU216WMR100,2013-04-26 15:24:00,
2013-04-26 11:29:00,59.9,23.8,29.44,SSW,202,2.0,4.5,25,0.00,,,0.00,WUHU216WMR100,2013-04-26 15:29:00,
2013-04-26 11:34:00,60.1,24.0,29.44,SSW,202,1.1,3.6,25,0.00,,,0.00,WUHU216WMR100,2013-04-26 15:34:00,
2013-04-26 11:39:00,60.4,24.3,29.44,ENE,67,3.8,3.8,25,0.00,,,0.00,WUHU216WMR100,2013-04-26 15:39:00,
2013-04-26 11:44:00,61.5,25.2,29.44,NNE,22,2.5,3.8,25,0.00,,,0.00,WUHU216WMR100,2013-04-26 15:44:00,
2013-04-26 11:49:00,62.1,25.7,29.44,East,90,2.7,3.8,25,0.00,,,0.00,WUHU216WMR100,2013-04-26 15:49:00,
2013-04-26 11:54:00,63.3,25.8,29.44,SSW,192,1.7,3.6,24,0.00,,,0.00,WUHU216WMR100,2013-04-26 15:54:00,
2013-04-26 11:59:00,62.8,25.3,29.44,SSE,157,0.9,3.6,24,0.00,,,0.00,WUHU216WMR100,2013-04-26 15:59:00,
2013-04-26 12:04:00,62.2,25.8,29.44,ESE,112,3.1,3.8,25,0.00,,,0.00,WUHU216WMR100,2013-04-26 16:04:00,
2013-04-26 12:09:00,61.9,24.6,29.44,ESE,112,3.1,3.8,24,0.00,,,0.00,WUHU216WMR100,2013-04-26 16:09:00,
2013-04-26 12:14:00,63.9,26.3,29.44,ESE,112,3.1,3.1,24,0.00,,,0.00,WUHU216WMR100,2013-04-26 16:14:00,
2013-04-26 12:19:00,63.3,25.8,29.44,ENE,62,2.5,3.1,24,0.00,,,0.00,WUHU216WMR100,2013-04-26 16:19:00,
2013-04-26 12:24:00,62.6,25.2,29.44,WNW,284,3.5,4.9,24,0.00,,,0.00,WUHU216WMR100,2013-04-26 16:24:00,
2013-04-26 12:29:00,63.0,25.5,29.44,NW,315,3.1,4.9,24,0.00,,,0.00,WUHU216WMR100,2013-04-26 16:29:00,
2013-04-26 12:34:00,64.2,26.5,29.41,WNW,292,1.1,4.0,24,0.00,,,0.00,WUHU216WMR100,2013-04-26 16:34:00,
2013-04-26 12:39:00,63.7,25.1,29.41,East,90,3.4,4.3,23,0.00,,,0.00,WUHU216WMR100,2013-04-26 16:39:00,
2013-04-26 12:44:00,64.4,25.7,29.41,ESE,112,3.0,4.3,23,0.00,,,0.00,WUHU216WMR100,2013-04-26 16:44:00,
2013-04-26 12:49:00,64.8,26.0,29.44,North,0,3.1,4.3,23,0.00,,,0.00,WUHU216WMR100,2013-04-26 16:49:00,
2013-04-26 12:54:00,64.2,23.4,29.44,ENE,67,3.6,6.0,21,0.00,,,0.00,WUHU216WMR100,2013-04-26 16:54:00,
2013-04-26 12:59:00,64.4,25.7,29.44,SSW,202,1.3,6.0,23,0.00,,,0.00,WUHU216WMR100,2013-04-26 16:59:00,
2013-04-26 13:04:00,63.9,25.3,29.44,SW,230,3.5,5.6,23,0.00,,,0.00,WUHU216WMR100,2013-04-26 17:04:00,
2013-04-26 13:09:00,65.1,26.3,29.44,ESE,112,1.3,5.6,23,0.00,,,0.00,WUHU216WMR100,2013-04-26 17:09:00,
2013-04-26 13:14:00,64.4,22.4,29.44,NNW,337,2.9,5.8,20,0.00,,,0.00,WUHU216WMR100,2013-04-26 17:14:00,
2013-04-26 13:19:00,64.9,22.8,29.44,NNW,337,3.1,5.8,20,0.00,,,0.00,WUHU216WMR100,2013-04-26 17:19:00,
2013-04-26 13:24:00,65.1,23.0,29.44,NW,315,3.4,3.8,20,0.00,,,0.00,WUHU216WMR100,2013-04-26 17:24:00,
2013-04-26 13:29:00,66.0,23.7,29.44,SSW,197,1.8,3.6,20,0.00,,,0.00,WUHU216WMR100,2013-04-26 17:29:00,
2013-04-26 13:34:00,64.4,22.4,29.41,SE,135,3.1,4.3,20,0.00,,,0.00,WUHU216WMR100,2013-04-26 17:34:00,
2013-04-26 13:39:00,65.7,23.5,29.41,NE,56,3.2,5.4,20,0.00,,,0.00,WUHU216WMR100,2013-04-26 17:39:00,
2013-04-26 13:44:00,66.2,23.9,29.41,NNE,22,2.2,5.4,20,0.00,,,0.00,WUHU216WMR100,2013-04-26 17:44:00,
2013-04-26 13:49:00,65.7,23.5,29.41,South,172,2.7,3.6,20,0.00,,,0.00,WUHU216WMR100,2013-04-26 17:49:00,
2013-04-26 13:54:00,65.8,23.5,29.41,West,270,3.1,3.6,20,0.00,,,0.00,WUHU216WMR100,2013-04-26 17:54:00,
2013-04-26 13:59:00,65.7,23.5,29.41,SSW,202,3.8,6.3,20,0.00,,,0.00,WUHU216WMR100,2013-04-26 17:59:00,
2013-04-26 14:04:00,66.2,23.9,29.41,WNW,292,3.6,6.3,20,0.00,,,0.00,WUHU216WMR100,2013-04-26 18:04:00,
2013-04-26 14:09:00,66.9,24.5,29.41,North,358,2.2,4.7,20,0.00,,,0.00,WUHU216WMR100,2013-04-26 18:09:00,
2013-04-26 14:14:00,67.3,24.8,29.41,WSW,247,3.1,4.7,20,0.00,,,0.00,WUHU216WMR100,2013-04-26 18:14:00,
2013-04-26 14:19:00,65.5,23.3,29.41,North,6,2.6,6.0,20,0.00,,,0.00,WUHU216WMR100,2013-04-26 18:19:00,
2013-04-26 14:24:00,66.4,24.0,29.41,SSE,157,3.4,6.0,20,0.00,,,0.00,WUHU216WMR100,2013-04-26 18:24:00,
2013-04-26 14:29:00,66.9,24.5,29.41,ESE,112,2.5,4.3,20,0.00,,,0.00,WUHU216WMR100,2013-04-26 18:29:00,
2013-04-26 14:34:00,66.0,23.7,29.41,South,177,2.8,4.9,20,0.00,,,0.00,WUHU216WMR100,2013-04-26 18:34:00,
2013-04-26 14:39:00,66.9,24.5,29.41,North,353,2.6,4.9,20,0.00,,,0.00,WUHU216WMR100,2013-04-26 18:39:00,
2013-04-26 14:44:00,67.3,24.8,29.41,ESE,112,2.0,4.9,20,0.00,,,0.00,WUHU216WMR100,2013-04-26 18:44:00,
2013-04-26 14:49:00,67.8,25.2,29.41,North,0,2.2,3.1,20,0.00,,,0.00,WUHU216WMR100,2013-04-26 18:49:00,
2013-04-26 14:54:00,67.1,24.6,29.41,North,0,4.0,6.7,20,0.00,,,0.00,WUHU216WMR100,2013-04-26 18:54:00,
2013-04-26 14:59:00,66.0,23.7,29.41,NNW,340,4.4,6.7,20,0.00,,,0.00,WUHU216WMR100,2013-04-26 18:59:00,
2013-04-26 15:04:00,65.8,23.5,29.41,South,180,3.4,6.7,20,0.00,,,0.00,WUHU216WMR100,2013-04-26 19:04:00,
2013-04-26 15:09:00,66.9,24.5,29.41,WNW,292,2.7,6.0,20,0.00,,,0.00,WUHU216WMR100,2013-04-26 19:09:00,
2013-04-26 15:15:00,67.6,27.3,29.41,ESE,112,2.2,4.0,22,0.00,,,0.00,WUHU216WMR100,2013-04-26 19:15:00,
2013-04-26 15:20:00,68.5,25.8,29.41,NW,315,2.6,4.0,20,0.00,,,0.00,WUHU216WMR100,2013-04-26 19:20:00,
2013-04-26 15:25:00,66.9,24.5,29.41,North,0,4.0,4.3,20,0.00,,,0.00,WUHU216WMR100,2013-04-26 19:25:00,
2013-04-26 15:30:00,66.0,23.7,29.41,NNW,337,4.0,6.0,20,0.00,,,0.00,WUHU216WMR100,2013-04-26 19:30:00,
2013-04-26 15:35:00,66.0,23.7,29.41,WNW,301,3.3,6.0,20,0.00,,,0.00,WUHU216WMR100,2013-04-26 19:35:00,
2013-04-26 15:40:00,66.7,24.3,29.41,NNW,333,2.7,6.0,20,0.00,,,0.00,WUHU216WMR100,2013-04-26 19:40:00,
2013-04-26 15:45:00,68.0,25.4,29.41,WSW,247,2.2,4.0,20,0.00,,,0.00,WUHU216WMR100,2013-04-26 19:45:00,
2013-04-26 15:50:00,67.5,24.9,29.38,NW,315,2.7,4.0,20,0.00,,,0.00,WUHU216WMR100,2013-04-26 19:50:00,
2013-04-26 15:55:00,68.2,25.5,29.38,NE,45,2.9,5.6,20,0.00,,,0.00,WUHU216WMR100,2013-04-26 19:55:00,
2013-04-26 16:00:00,68.7,25.9,29.38,North,0,2.2,5.6,20,0.00,,,0.00,WUHU216WMR100,2013-04-26 20:00:00,
2013-04-26 16:05:00,68.2,25.5,29.38,NW,315,2.2,4.5,20,0.00,,,0.00,WUHU216WMR100,2013-04-26 20:05:00,
2013-04-26 16:10:00,67.5,24.9,29.38,SSW,202,2.7,4.5,20,0.00,,,0.00,WUHU216WMR100,2013-04-26 20:10:00,
2013-04-26 16:15:00,68.4,25.7,29.38,NNW,330,1.3,3.6,20,0.00,,,0.00,WUHU216WMR100,2013-04-26 20:15:00,
2013-04-26 16:20:00,68.4,21.8,29.38,East,90,2.7,3.6,17,0.00,,,0.00,WUHU216WMR100,2013-04-26 20:20:00,
2013-04-26 16:25:00,66.9,20.6,29.38,ENE,67,4.7,4.9,17,0.00,,,0.00,WUHU216WMR100,2013-04-26 20:25:00,
2013-04-26 16:30:00,66.9,20.6,29.38,ENE,73,3.2,4.9,17,0.00,,,0.00,WUHU216WMR100,2013-04-26 20:30:00,
2013-04-26 16:35:00,68.0,21.5,29.35,East,88,2.0,5.4,17,0.00,,,0.00,WUHU216WMR100,2013-04-26 20:35:00,
2013-04-26 16:40:00,68.5,21.9,29.35,NE,45,1.8,5.4,17,0.00,,,0.00,WUHU216WMR100,2013-04-26 20:40:00,
2013-04-26 16:45:00,67.1,20.8,29.35,SE,143,3.2,5.4,17,0.00,,,0.00,WUHU216WMR100,2013-04-26 20:45:00,
2013-04-26 16:50:00,66.0,21.2,29.35,ENE,73,3.6,5.4,18,0.00,,,0.00,WUHU216WMR100,2013-04-26 20:50:00,
2013-04-26 16:55:00,66.6,24.2,29.35,NNW,337,1.8,4.9,20,0.00,,,0.00,WUHU216WMR100,2013-04-26 20:55:00,
2013-04-26 17:00:00,66.7,20.4,29.35,NNW,337,2.6,4.3,17,0.00,,,0.00,WUHU216WMR100,2013-04-26 21:00:00,
2013-04-26 17:05:00,67.8,21.3,29.35,NNW,337,0.9,4.3,17,0.00,,,0.00,WUHU216WMR100,2013-04-26 21:05:00,
2013-04-26 17:10:00,66.4,20.2,29.35,South,181,3.3,5.4,17,0.00,,,0.00,WUHU216WMR100,2013-04-26 21:10:00,
2013-04-26 17:15:00,66.7,20.4,29.35,South,189,2.8,5.4,17,0.00,,,0.00,WUHU216WMR100,2013-04-26 21:15:00,
2013-04-26 17:20:00,66.9,20.6,29.35,North,0,2.2,3.8,17,0.00,,,0.00,WUHU216WMR100,2013-04-26 21:20:00,
2013-04-26 17:25:00,67.3,20.9,29.35,West,270,2.5,3.6,17,0.00,,,0.00,WUHU216WMR100,2013-04-26 21:25:00,
2013-04-26 17:30:00,67.3,20.9,29.35,West,267,2.9,3.8,17,0.00,,,0.00,WUHU216WMR100,2013-04-26 21:30:00,
2013-04-26 17:35:00,66.4,20.2,29.35,West,270,3.4,4.3,17,0.00,,,0.00,WUHU216WMR100,2013-04-26 21:35:00,
2013-04-26 17:40:00,66.6,20.4,29.35,NNW,337,2.9,4.3,17,0.00,,,0.00,WUHU216WMR100,2013-04-26 21:40:00,
2013-04-26 17:45:00,66.6,20.4,29.35,West,270,2.5,4.3,17,0.00,,,0.00,WUHU216WMR100,2013-04-26 21:45:00,
2013-04-26 17:50:00,66.6,20.4,29.35,NNW,337,2.2,3.6,17,0.00,,,0.00,WUHU216WMR100,2013-04-26 21:50:00,
2013-04-26 17:55:00,65.5,20.8,29.35,NNW,337,3.1,4.3,18,0.00,,,0.00,WUHU216WMR100,2013-04-26 21:55:00,
2013-04-26 18:00:00,65.7,21.0,29.35,NNW,337,2.7,4.3,18,0.00,,,0.00,WUHU216WMR100,2013-04-26 22:00:00,
2013-04-26 18:05:00,65.7,21.0,29.35,NNW,337,0.6,4.0,18,0.00,,,0.00,WUHU216WMR100,2013-04-26 22:05:00,
2013-04-26 18:10:00,66.0,21.2,29.35,NNW,337,0.8,4.0,18,0.00,,,0.00,WUHU216WMR100,2013-04-26 22:10:00,
2013-04-26 18:15:00,66.0,21.2,29.35,SSW,202,2.5,3.4,18,0.00,,,0.00,WUHU216WMR100,2013-04-26 22:15:00,
2013-04-26 18:20:00,64.9,20.3,29.35,SSW,202,2.3,3.6,18,0.00,,,0.00,WUHU216WMR100,2013-04-26 22:20:00,
2013-04-26 18:25:00,64.0,19.6,29.35,SSW,202,2.2,3.6,18,0.00,,,0.00,WUHU216WMR100,2013-04-26 22:25:00,
2013-04-26 18:30:00,64.6,20.1,29.35,WSW,247,2.2,2.9,18,0.00,,,0.00,WUHU216WMR100,2013-04-26 22:30:00,
2013-04-26 18:35:00,64.8,20.2,29.35,WSW,247,2.1,3.1,18,0.00,,,0.00,WUHU216WMR100,2013-04-26 22:35:00,
2013-04-26 18:40:00,65.1,20.5,29.35,West,270,0.9,3.1,18,0.00,,,0.00,WUHU216WMR100,2013-04-26 22:40:00,
2013-04-26 18:45:00,64.8,20.2,29.35,North,0,2.0,3.1,18,0.00,,,0.00,WUHU216WMR100,2013-04-26 22:45:00,
2013-04-26 18:50:00,64.2,19.7,29.35,West,270,2.7,3.1,18,0.00,,,0.00,WUHU216WMR100,2013-04-26 22:50:00,
2013-04-26 18:55:00,64.2,19.7,29.35,WNW,292,1.3,2.7,18,0.00,,,0.00,WUHU216WMR100,2013-04-26 22:55:00,
2013-04-26 19:00:00,63.9,19.5,29.35,WNW,292,1.6,2.7,18,0.00,,,0.00,WUHU216WMR100,2013-04-26 23:00:00,
2013-04-26 19:05:00,63.0,18.8,29.35,ENE,67,2.2,3.4,18,0.00,,,0.00,WUHU216WMR100,2013-04-26 23:05:00,
2013-04-26 19:10:00,62.2,19.4,29.35,NNW,337,2.7,3.8,19,0.00,,,0.00,WUHU216WMR100,2013-04-26 23:10:00,
2013-04-26 19:15:00,62.2,19.4,29.35,North,0,1.3,3.8,19,0.00,,,0.00,WUHU216WMR100,2013-04-26 23:15:00,
2013-04-26 19:20:00,62.2,19.4,29.35,North,0,2.0,3.8,19,0.00,,,0.00,WUHU216WMR100,2013-04-26 23:20:00,
2013-04-26 19:25:00,61.7,18.9,29.35,WNW,292,2.7,3.4,19,0.00,,,0.00,WUHU216WMR100,2013-04-26 23:25:00,
2013-04-26 19:30:00,61.5,18.8,29.35,WNW,292,1.9,3.4,19,0.00,,,0.00,WUHU216WMR100,2013-04-26 23:30:00,
2013-04-26 19:36:00,61.3,18.6,29.35,WNW,292,1.3,3.1,19,0.00,,,0.00,WUHU216WMR100,2013-04-26 23:36:00,
2013-04-26 19:41:00,60.8,18.2,29.35,WNW,292,1.3,2.7,19,0.00,,,0.00,WUHU216WMR100,2013-04-26 23:41:00,
2013-04-26 19:46:00,60.4,17.9,29.35,WNW,292,1.3,2.7,19,0.00,,,0.00,WUHU216WMR100,2013-04-26 23:46:00,
2013-04-26 19:51:00,59.5,17.1,29.35,WNW,292,0.0,2.7,19,0.00,,,0.00,WUHU216WMR100,2013-04-26 23:51:00,
2013-04-26 19:54:00,59.2,16.9,29.35,WNW,292,0.0,2.7,19,0.00,,,0.00,WUHU216WMR100,2013-04-26 23:54:00,
2013-04-26 20:05:00,57.6,15.6,29.35,WNW,292,0.0,2.0,19,0.00,,,0.00,WUHU216WMR100,2013-04-27 00:05:00,
2013-04-26 20:10:00,56.8,16.1,29.35,WNW,292,0.0,2.0,20,0.00,,,0.00,WUHU216WMR100,2013-04-27 00:10:00,
2013-04-26 20:15:00,56.1,15.5,29.35,WNW,292,0.0,0.0,20,0.00,,,0.00,WUHU216WMR100,2013-04-27 00:15:00,
2013-04-26 20:20:00,55.4,14.9,29.35,WNW,292,0.0,0.0,20,0.00,,,0.00,WUHU216WMR100,2013-04-27 00:20:00,
2013-04-26 20:25:00,54.7,17.5,29.35,WNW,292,0.0,0.0,23,0.00,,,0.00,WUHU216WMR100,2013-04-27 00:25:00,
2013-04-26 20:30:00,54.0,16.9,29.35,WNW,292,0.0,0.0,23,0.00,,,0.00,WUHU216WMR100,2013-04-27 00:30:00,
2013-04-26 20:35:00,53.2,16.2,29.35,WNW,292,0.0,0.0,23,0.00,,,0.00,WUHU216WMR100,2013-04-27 00:35:00,
2013-04-26 20:40:00,53.1,16.1,29.35,WNW,292,0.0,0.0,23,0.00,,,0.00,WUHU216WMR100,2013-04-27 00:40:00,
2013-04-26 20:45:00,52.5,18.4,29.35,WNW,292,0.0,0.0,26,0.00,,,0.00,WUHU216WMR100,2013-04-27 00:45:00,
2013-04-26 20:50:00,52.2,18.2,29.35,WNW,292,0.5,1.3,26,0.00,,,0.00,WUHU216WMR100,2013-04-27 00:50:00,
2013-04-26 20:55:00,51.6,18.5,29.35,WNW,292,0.0,1.3,27,0.00,,,0.00,WUHU216WMR100,2013-04-27 00:55:00,
2013-04-26 21:01:00,51.1,18.1,29.35,NNW,337,0.0,0.0,27,0.00,,,0.00,WUHU216WMR100,2013-04-27 01:01:00,
2013-04-26 21:10:00,50.5,18.4,29.35,NNW,337,0.0,0.0,28,0.00,,,0.00,WUHU216WMR100,2013-04-27 01:10:00,
2013-04-26 21:15:00,50.4,19.1,29.35,NNW,337,0.0,0.0,29,0.00,,,0.00,WUHU216WMR100,2013-04-27 01:15:00,
2013-04-26 21:20:00,50.0,19.5,29.35,WNW,292,1.3,2.0,30,0.00,,,0.00,WUHU216WMR100,2013-04-27 01:20:00,
2013-04-26 21:25:00,49.6,20.7,29.35,WNW,292,1.1,2.0,32,0.00,,,0.00,WUHU216WMR100,2013-04-27 01:25:00,
2013-04-26 21:30:00,49.1,23.1,29.35,WNW,292,0.0,1.3,36,0.00,,,0.00,WUHU216WMR100,2013-04-27 01:30:00,
2013-04-26 21:35:00,48.7,23.4,29.35,WNW,292,0.0,1.3,37,0.00,,,0.00,WUHU216WMR100,2013-04-27 01:35:00,
2013-04-26 21:40:00,48.4,23.1,29.35,NNW,337,0.0,0.0,37,0.00,,,0.00,WUHU216WMR100,2013-04-27 01:40:00,
2013-04-26 21:45:00,48.2,23.6,29.35,NNW,337,0.0,0.0,38,0.00,,,0.00,WUHU216WMR100,2013-04-27 01:45:00,
2013-04-26 21:50:00,48.0,24.0,29.35,NNW,337,0.0,0.0,39,0.00,,,0.00,WUHU216WMR100,2013-04-27 01:50:00,
2013-04-26 21:55:00,47.5,23.6,29.35,NNW,337,0.0,0.0,39,0.00,,,0.00,WUHU216WMR100,2013-04-27 01:55:00,
2013-04-26 22:00:00,47.1,22.6,29.35,NNW,337,0.0,0.0,38,0.00,,,0.00,WUHU216WMR100,2013-04-27 02:00:00,
2013-04-26 22:05:00,46.9,23.0,29.38,NNW,337,0.0,0.0,39,0.00,,,0.00,WUHU216WMR100,2013-04-27 02:05:00,
2013-04-26 22:10:00,46.8,23.5,29.38,NNW,337,0.0,0.0,40,0.00,,,0.00,WUHU216WMR100,2013-04-27 02:10:00,
2013-04-26 22:15:00,46.2,23.6,29.38,NNW,337,0.0,0.0,41,0.00,,,0.00,WUHU216WMR100,2013-04-27 02:15:00,
2013-04-26 22:20:00,46.4,23.8,29.38,NNW,337,0.0,0.0,41,0.00,,,0.00,WUHU216WMR100,2013-04-27 02:20:00,
2013-04-26 22:25:00,46.0,23.4,29.38,NNW,337,0.0,0.0,41,0.00,,,0.00,WUHU216WMR100,2013-04-27 02:25:00,
2013-04-26 22:30:00,46.2,24.2,29.38,NNE,22,0.0,0.0,42,0.00,,,0.00,WUHU216WMR100,2013-04-27 02:30:00,
2013-04-26 22:35:00,46.0,24.0,29.38,NNE,22,0.0,0.0,42,0.00,,,0.00,WUHU216WMR100,2013-04-27 02:35:00,
2013-04-26 22:40:00,45.5,24.1,29.38,NNE,22,0.0,0.0,43,0.00,,,0.00,WUHU216WMR100,2013-04-27 02:40:00,
2013-04-26 22:45:00,45.9,25.6,29.38,NNE,22,0.0,0.0,45,0.00,,,0.00,WUHU216WMR100,2013-04-27 02:45:00,
2013-04-26 22:50:00,45.5,25.3,29.38,NNE,22,0.0,0.0,45,0.00,,,0.00,WUHU216WMR100,2013-04-27 02:50:00,
2013-04-26 22:55:00,45.1,25.4,29.38,NNE,22,0.0,0.0,46,0.00,,,0.00,WUHU216WMR100,2013-04-27 02:55:00,
2013-04-26 23:00:00,44.8,25.2,29.38,NNE,22,0.0,0.0,46,0.00,,,0.00,WUHU216WMR100,2013-04-27 03:00:00,
2013-04-26 23:05:00,44.6,25.5,29.38,NNE,22,0.0,0.0,47,0.00,,,0.00,WUHU216WMR100,2013-04-27 03:05:00,
2013-04-26 23:10:00,44.6,25.5,29.38,NNE,22,0.0,0.0,47,0.00,,,0.00,WUHU216WMR100,2013-04-27 03:10:00,
2013-04-26 23:15:00,44.4,26.4,29.38,NNE,22,0.0,0.0,49,0.00,,,0.00,WUHU216WMR100,2013-04-27 03:15:00,
2013-04-26 23:20:00,44.2,26.2,29.35,NNE,22,0.0,0.0,49,0.00,,,0.00,WUHU216WMR100,2013-04-27 03:20:00,
2013-04-26 23:25:00,43.9,25.9,29.35,NNE,22,0.0,0.0,49,0.00,,,0.00,WUHU216WMR100,2013-04-27 03:25:00,
2013-04-26 23:30:00,43.5,25.5,29.35,NNE,22,0.0,0.0,49,0.00,,,0.00,WUHU216WMR100,2013-04-27 03:30:00,
2013-04-26 23:35:00,43.5,25.5,29.35,NNE,22,0.0,0.0,49,0.00,,,0.00,WUHU216WMR100,2013-04-27 03:35:00,
2013-04-26 23:40:00,43.0,25.1,29.35,NNE,22,0.0,0.0,49,0.00,,,0.00,WUHU216WMR100,2013-04-27 03:40:00,
2013-04-26 23:45:00,42.8,25.9,29.35,NNE,22,0.0,0.0,51,0.00,,,0.00,WUHU216WMR100,2013-04-27 03:45:00,
2013-04-26 23:50:00,42.4,25.5,29.35,NNE,22,0.0,0.0,51,0.00,,,0.00,WUHU216WMR100,2013-04-27 03:50:00,
2013-04-26 23:55:00,42.4,26.0,29.35,NNE,22,0.0,0.0,52,0.00,,,0.00,WUHU216WMR100,2013-04-27 03:55:00,